sensor_id;sensor_type;location;lat;lon;timestamp;pressure;altitude;pressure_sealevel;temperature;humidity
44441;BME280;30146;52.268;20.944;2023-04-21T00:01:17;100776.02;;;10.98;46.79
44441;BME280;30146;52.268;20.944;2023-04-21T00:03:46;100777.56;;;10.95;46.91
44441;BME280;30146;52.268;20.944;2023-04-21T00:06:14;100773.80;;;10.91;46.87
44441;BME280;30146;52.268;20.944;2023-04-21T00:08:48;100773.14;;;10.90;47.01
44441;BME280;30146;52.268;20.944;2023-04-21T00:11:17;100771.79;;;10.86;46.98
44441;BME280;30146;52.268;20.944;2023-04-21T00:13:45;100768.37;;;10.83;47.17
44441;BME280;30146;52.268;20.944;2023-04-21T00:16:13;100770.77;;;10.82;47.27
44441;BME280;30146;52.268;20.944;2023-04-21T00:18:41;100766.67;;;10.79;47.25
44441;BME280;30146;52.268;20.944;2023-04-21T00:21:09;100766.52;;;10.77;47.36
44441;BME280;30146;52.268;20.944;2023-04-21T00:23:37;100763.27;;;10.75;47.44
44441;BME280;30146;52.268;20.944;2023-04-21T00:26:05;100763.28;;;10.72;47.52
44441;BME280;30146;52.268;20.944;2023-04-21T00:28:33;100763.98;;;10.70;47.60
44441;BME280;30146;52.268;20.944;2023-04-21T00:31:01;100764.66;;;10.66;47.48
44441;BME280;30146;52.268;20.944;2023-04-21T00:33:29;100768.95;;;10.64;47.70
44441;BME280;30146;52.268;20.944;2023-04-21T00:35:57;100761.42;;;10.60;47.63
44441;BME280;30146;52.268;20.944;2023-04-21T00:38:27;100761.95;;;10.56;47.78
44441;BME280;30146;52.268;20.944;2023-04-21T00:40:56;100761.96;;;10.53;47.97
44441;BME280;30146;52.268;20.944;2023-04-21T00:43:24;100763.52;;;10.51;48.07
44441;BME280;30146;52.268;20.944;2023-04-21T00:45:54;100764.02;;;10.49;47.94
44441;BME280;30146;52.268;20.944;2023-04-21T00:48:22;100759.27;;;10.48;48.08
44441;BME280;30146;52.268;20.944;2023-04-21T00:50:50;100764.04;;;10.45;48.11
44441;BME280;30146;52.268;20.944;2023-04-21T00:53:19;100765.23;;;10.44;48.23
44441;BME280;30146;52.268;20.944;2023-04-21T00:55:48;100763.86;;;10.41;48.20
44441;BME280;30146;52.268;20.944;2023-04-21T00:58:17;100763.70;;;10.38;48.35
44441;BME280;30146;52.268;20.944;2023-04-21T01:00:45;100759.11;;;10.35;48.26
44441;BME280;30146;52.268;20.944;2023-04-21T01:03:15;100756.71;;;10.31;48.26
44441;BME280;30146;52.268;20.944;2023-04-21T01:05:44;100757.21;;;10.28;48.47
44441;BME280;30146;52.268;20.944;2023-04-21T01:08:13;100758.75;;;10.25;48.67
44441;BME280;30146;52.268;20.944;2023-04-21T01:10:42;100754.99;;;10.22;48.66
44441;BME280;30146;52.268;20.944;2023-04-21T01:13:10;100753.80;;;10.19;48.71
44441;BME280;30146;52.268;20.944;2023-04-21T01:15:38;100753.63;;;10.17;48.84
44441;BME280;30146;52.268;20.944;2023-04-21T01:18:06;100753.13;;;10.15;48.66
44441;BME280;30146;52.268;20.944;2023-04-21T01:20:35;100753.63;;;10.11;48.79
44441;BME280;30146;52.268;20.944;2023-04-21T01:23:06;100752.27;;;10.08;48.97
44441;BME280;30146;52.268;20.944;2023-04-21T01:25:34;100751.94;;;10.05;48.98
44441;BME280;30146;52.268;20.944;2023-04-21T01:28:04;100752.11;;;10.01;49.11
44441;BME280;30146;52.268;20.944;2023-04-21T01:30:32;100752.11;;;9.99;49.13
44441;BME280;30146;52.268;20.944;2023-04-21T01:33:00;100751.27;;;9.97;49.09
44441;BME280;30146;52.268;20.944;2023-04-21T01:35:29;100749.71;;;9.94;49.13
44441;BME280;30146;52.268;20.944;2023-04-21T01:37:58;100751.27;;;9.92;49.27
44441;BME280;30146;52.268;20.944;2023-04-21T01:40:26;100748.52;;;9.89;49.41
44441;BME280;30146;52.268;20.944;2023-04-21T01:42:54;100751.77;;;9.86;49.40
44441;BME280;30146;52.268;20.944;2023-04-21T01:45:23;100749.20;;;9.83;49.24
44441;BME280;30146;52.268;20.944;2023-04-21T01:47:51;100752.96;;;9.80;49.43
44441;BME280;30146;52.268;20.944;2023-04-21T01:50:19;100752.29;;;9.78;49.49
44441;BME280;30146;52.268;20.944;2023-04-21T01:52:47;100755.18;;;9.76;49.60
44441;BME280;30146;52.268;20.944;2023-04-21T01:55:16;100754.49;;;9.74;49.66
44441;BME280;30146;52.268;20.944;2023-04-21T01:57:44;100754.84;;;9.71;49.56
44441;BME280;30146;52.268;20.944;2023-04-21T02:00:14;100753.47;;;9.69;49.67
44441;BME280;30146;52.268;20.944;2023-04-21T02:02:43;100754.50;;;9.66;49.62
44441;BME280;30146;52.268;20.944;2023-04-21T02:05:13;100753.46;;;9.63;49.60
44441;BME280;30146;52.268;20.944;2023-04-21T02:07:41;100753.45;;;9.61;49.72
44441;BME280;30146;52.268;20.944;2023-04-21T02:10:10;100757.73;;;9.60;49.81
44441;BME280;30146;52.268;20.944;2023-04-21T02:12:39;100756.54;;;9.58;49.85
44441;BME280;30146;52.268;20.944;2023-04-21T02:15:09;100751.41;;;9.57;49.88
44441;BME280;30146;52.268;20.944;2023-04-21T02:17:37;100749.89;;;9.56;50.05
44441;BME280;30146;52.268;20.944;2023-04-21T02:20:08;100747.98;;;9.54;49.94
44441;BME280;30146;52.268;20.944;2023-04-21T02:22:38;100749.52;;;9.51;50.08
44441;BME280;30146;52.268;20.944;2023-04-21T02:25:08;100751.06;;;9.49;50.14
44441;BME280;30146;52.268;20.944;2023-04-21T02:27:36;100748.48;;;9.46;50.06
44441;BME280;30146;52.268;20.944;2023-04-21T02:30:07;100749.35;;;9.43;50.15
44441;BME280;30146;52.268;20.944;2023-04-21T02:32:35;100753.27;;;9.41;50.27
44441;BME280;30146;52.268;20.944;2023-04-21T02:35:05;100758.89;;;9.38;50.31
44441;BME280;30146;52.268;20.944;2023-04-21T02:37:34;100758.20;;;9.35;50.19
44441;BME280;30146;52.268;20.944;2023-04-21T02:40:02;100755.47;;;9.32;50.37
44441;BME280;30146;52.268;20.944;2023-04-21T02:42:33;100755.29;;;9.28;50.49
44441;BME280;30146;52.268;20.944;2023-04-21T02:45:01;100750.66;;;9.24;50.34
44441;BME280;30146;52.268;20.944;2023-04-21T02:47:29;100748.77;;;9.23;50.44
44441;BME280;30146;52.268;20.944;2023-04-21T02:49:57;100748.77;;;9.20;50.55
44441;BME280;30146;52.268;20.944;2023-04-21T02:52:25;100746.91;;;9.18;50.65
44441;BME280;30146;52.268;20.944;2023-04-21T02:54:54;100744.50;;;9.16;50.78
44441;BME280;30146;52.268;20.944;2023-04-21T02:57:22;100745.52;;;9.14;50.84
44441;BME280;30146;52.268;20.944;2023-04-21T02:59:50;100744.16;;;9.12;50.63
44441;BME280;30146;52.268;20.944;2023-04-21T03:02:18;100743.63;;;9.10;50.88
44441;BME280;30146;52.268;20.944;2023-04-21T03:04:46;100744.65;;;9.09;50.99
44441;BME280;30146;52.268;20.944;2023-04-21T03:07:14;100744.65;;;9.08;51.05
44441;BME280;30146;52.268;20.944;2023-04-21T03:09:42;100741.57;;;9.06;50.90
44441;BME280;30146;52.268;20.944;2023-04-21T03:12:10;100744.81;;;9.04;51.01
44441;BME280;30146;52.268;20.944;2023-04-21T03:14:38;100741.40;;;9.02;50.91
44441;BME280;30146;52.268;20.944;2023-04-21T03:17:07;100741.56;;;8.99;51.14
44441;BME280;30146;52.268;20.944;2023-04-21T03:19:35;100744.79;;;8.98;51.20
44441;BME280;30146;52.268;20.944;2023-04-21T03:22:03;100743.59;;;8.97;51.18
44441;BME280;30146;52.268;20.944;2023-04-21T03:24:31;100740.02;;;8.95;51.30
44441;BME280;30146;52.268;20.944;2023-04-21T03:26:59;100740.16;;;8.94;51.20
44441;BME280;30146;52.268;20.944;2023-04-21T03:29:28;100742.04;;;8.92;51.40
44441;BME280;30146;52.268;20.944;2023-04-21T03:31:56;100743.58;;;8.91;51.30
44441;BME280;30146;52.268;20.944;2023-04-21T03:34:25;100741.02;;;8.89;51.42
44441;BME280;30146;52.268;20.944;2023-04-21T03:36:53;100743.39;;;8.90;51.49
44441;BME280;30146;52.268;20.944;2023-04-21T03:39:22;100743.73;;;8.91;51.52
44441;BME280;30146;52.268;20.944;2023-04-21T03:41:51;100743.23;;;8.92;51.44
44441;BME280;30146;52.268;20.944;2023-04-21T03:44:19;100746.47;;;8.93;51.37
44441;BME280;30146;52.268;20.944;2023-04-21T03:46:50;100748.70;;;8.94;51.39
44441;BME280;30146;52.268;20.944;2023-04-21T03:49:19;100750.39;;;8.93;51.49
44441;BME280;30146;52.268;20.944;2023-04-21T03:51:48;100752.10;;;8.94;51.58
44441;BME280;30146;52.268;20.944;2023-04-21T03:54:16;100755.01;;;8.95;51.52
44441;BME280;30146;52.268;20.944;2023-04-21T03:56:44;100755.17;;;8.95;51.39
44441;BME280;30146;52.268;20.944;2023-04-21T03:59:12;100755.02;;;8.96;51.31
44441;BME280;30146;52.268;20.944;2023-04-21T04:01:39;100761.84;;;8.96;51.24
44441;BME280;30146;52.268;20.944;2023-04-21T04:04:08;100765.42;;;8.99;51.30
44441;BME280;30146;52.268;20.944;2023-04-21T04:06:37;100763.90;;;9.01;51.31
44441;BME280;30146;52.268;20.944;2023-04-21T04:09:05;100767.48;;;9.04;51.18
44441;BME280;30146;52.268;20.944;2023-04-21T04:11:33;100765.29;;;9.09;51.20
44441;BME280;30146;52.268;20.944;2023-04-21T04:14:01;100764.80;;;9.17;51.25
44441;BME280;30146;52.268;20.944;2023-04-21T04:16:29;100764.19;;;9.44;51.27
44441;BME280;30146;52.268;20.944;2023-04-21T04:18:57;100762.02;;;9.91;51.60
44441;BME280;30146;52.268;20.944;2023-04-21T04:21:25;100767.26;;;10.52;51.73
44441;BME280;30146;52.268;20.944;2023-04-21T04:23:55;100764.94;;;11.24;51.53
44441;BME280;30146;52.268;20.944;2023-04-21T04:26:23;100758.58;;;12.01;51.19
44441;BME280;30146;52.268;20.944;2023-04-21T04:28:52;100764.17;;;12.77;50.40
44441;BME280;30146;52.268;20.944;2023-04-21T04:31:19;100766.83;;;13.51;49.91
44441;BME280;30146;52.268;20.944;2023-04-21T04:33:48;100767.37;;;14.24;49.04
44441;BME280;30146;52.268;20.944;2023-04-21T04:36:16;100767.97;;;14.93;48.33
44441;BME280;30146;52.268;20.944;2023-04-21T04:38:45;100765.77;;;15.62;47.65
44441;BME280;30146;52.268;20.944;2023-04-21T04:41:13;100766.77;;;16.27;46.89
44441;BME280;30146;52.268;20.944;2023-04-21T04:43:47;100768.95;;;16.87;45.74
44441;BME280;30146;52.268;20.944;2023-04-21T04:46:15;100773.89;;;17.42;45.03
44441;BME280;30146;52.268;20.944;2023-04-21T04:48:44;100774.27;;;17.95;44.10
44441;BME280;30146;52.268;20.944;2023-04-21T04:51:12;100773.55;;;18.47;43.40
44441;BME280;30146;52.268;20.944;2023-04-21T04:53:40;100767.45;;;18.97;42.60
44441;BME280;30146;52.268;20.944;2023-04-21T04:56:08;100763.52;;;19.45;41.83
44441;BME280;30146;52.268;20.944;2023-04-21T04:58:36;100763.90;;;19.87;41.06
44441;BME280;30146;52.268;20.944;2023-04-21T05:01:11;100762.86;;;20.25;40.26
44441;BME280;30146;52.268;20.944;2023-04-21T05:03:40;100766.30;;;20.58;39.39
44441;BME280;30146;52.268;20.944;2023-04-21T05:06:10;100768.91;;;20.89;38.70
44441;BME280;30146;52.268;20.944;2023-04-21T05:08:38;100769.35;;;21.21;38.21
44441;BME280;30146;52.268;20.944;2023-04-21T05:11:08;100766.99;;;21.53;37.80
44441;BME280;30146;52.268;20.944;2023-04-21T05:13:36;100765.09;;;21.85;37.28
44441;BME280;30146;52.268;20.944;2023-04-21T05:16:08;100766.90;;;22.25;36.99
44441;BME280;30146;52.268;20.944;2023-04-21T05:18:38;100767.00;;;22.64;36.41
44441;BME280;30146;52.268;20.944;2023-04-21T05:21:06;100762.85;;;23.02;36.14
44441;BME280;30146;52.268;20.944;2023-04-21T05:23:34;100761.70;;;23.39;35.47
44441;BME280;30146;52.268;20.944;2023-04-21T05:26:02;100759.86;;;23.78;35.24
44441;BME280;30146;52.268;20.944;2023-04-21T05:28:32;100762.80;;;24.20;34.68
44441;BME280;30146;52.268;20.944;2023-04-21T05:31:00;100762.18;;;24.59;34.32
44441;BME280;30146;52.268;20.944;2023-04-21T05:33:28;100765.09;;;24.94;33.65
44441;BME280;30146;52.268;20.944;2023-04-21T05:35:58;100767.48;;;25.31;33.50
44441;BME280;30146;52.268;20.944;2023-04-21T05:38:26;100762.70;;;25.65;32.93
44441;BME280;30146;52.268;20.944;2023-04-21T05:40:54;100766.00;;;25.97;32.42
44441;BME280;30146;52.268;20.944;2023-04-21T05:43:33;100768.65;;;26.30;32.04
44441;BME280;30146;52.268;20.944;2023-04-21T05:46:02;100768.15;;;26.63;31.78
44441;BME280;30146;52.268;20.944;2023-04-21T05:48:31;100771.12;;;26.96;31.34
44441;BME280;30146;52.268;20.944;2023-04-21T05:53:50;100765.00;;;27.44;30.33
44441;BME280;30146;52.268;20.944;2023-04-21T05:56:18;100759.27;;;27.60;29.83
44441;BME280;30146;52.268;20.944;2023-04-21T05:58:46;100757.43;;;27.82;29.81
44441;BME280;30146;52.268;20.944;2023-04-21T06:01:17;100755.86;;;28.08;29.60
44441;BME280;30146;52.268;20.944;2023-04-21T06:03:45;100754.77;;;28.45;29.64
44441;BME280;30146;52.268;20.944;2023-04-21T06:06:16;100752.92;;;28.82;29.02
44441;BME280;30146;52.268;20.944;2023-04-21T06:08:44;100753.23;;;29.11;28.64
44441;BME280;30146;52.268;20.944;2023-04-21T06:11:15;100750.03;;;29.33;28.14
44441;BME280;30146;52.268;20.944;2023-04-21T06:13:43;100752.20;;;29.61;27.77
44441;BME280;30146;52.268;20.944;2023-04-21T06:16:11;100746.86;;;29.87;27.63
44441;BME280;30146;52.268;20.944;2023-04-21T06:18:40;100750.55;;;30.20;27.32
44441;BME280;30146;52.268;20.944;2023-04-21T06:21:08;100753.01;;;30.49;27.24
44441;BME280;30146;52.268;20.944;2023-04-21T06:23:40;100756.07;;;30.75;26.91
44441;BME280;30146;52.268;20.944;2023-04-21T06:26:08;100752.16;;;30.93;26.91
44441;BME280;30146;52.268;20.944;2023-04-21T06:28:37;100751.84;;;31.23;26.93
44441;BME280;30146;52.268;20.944;2023-04-21T06:31:05;100750.46;;;31.56;26.46
44441;BME280;30146;52.268;20.944;2023-04-21T06:33:36;100749.98;;;31.76;26.01
44441;BME280;30146;52.268;20.944;2023-04-21T06:36:05;100746.27;;;31.88;25.52
44441;BME280;30146;52.268;20.944;2023-04-21T06:38:34;100743.84;;;32.02;25.10
44441;BME280;30146;52.268;20.944;2023-04-21T06:41:02;100741.38;;;32.12;25.07
44441;BME280;30146;52.268;20.944;2023-04-21T06:43:31;100738.95;;;32.28;24.97
44441;BME280;30146;52.268;20.944;2023-04-21T06:45:59;100737.49;;;32.47;24.89
44441;BME280;30146;52.268;20.944;2023-04-21T06:48:27;100746.40;;;32.73;24.65
44441;BME280;30146;52.268;20.944;2023-04-21T06:51:02;100744.45;;;32.91;24.21
44441;BME280;30146;52.268;20.944;2023-04-21T06:53:31;100743.73;;;32.96;23.72
44441;BME280;30146;52.268;20.944;2023-04-21T06:55:59;100744.05;;;33.06;23.44
44441;BME280;30146;52.268;20.944;2023-04-21T06:58:28;100744.59;;;33.09;23.01
44441;BME280;30146;52.268;20.944;2023-04-21T07:00:56;100742.80;;;33.11;22.81
44441;BME280;30146;52.268;20.944;2023-04-21T07:03:24;100740.08;;;33.25;22.97
44441;BME280;30146;52.268;20.944;2023-04-21T07:05:53;100737.92;;;33.46;22.72
44441;BME280;30146;52.268;20.944;2023-04-21T07:08:21;100738.64;;;33.68;22.48
44441;BME280;30146;52.268;20.944;2023-04-21T07:10:49;100736.05;;;33.92;22.66
44441;BME280;30146;52.268;20.944;2023-04-21T07:13:17;100739.63;;;34.12;22.21
44441;BME280;30146;52.268;20.944;2023-04-21T07:15:46;100734.86;;;34.38;22.19
44441;BME280;30146;52.268;20.944;2023-04-21T07:18:14;100738.10;;;34.59;21.85
44441;BME280;30146;52.268;20.944;2023-04-21T07:20:42;100741.55;;;34.73;21.61
44441;BME280;30146;52.268;20.944;2023-04-21T07:23:12;100738.60;;;34.82;21.42
44441;BME280;30146;52.268;20.944;2023-04-21T07:25:41;100738.09;;;34.92;21.32
44441;BME280;30146;52.268;20.944;2023-04-21T07:28:09;100738.46;;;34.91;21.06
44441;BME280;30146;52.268;20.944;2023-04-21T07:30:40;100736.77;;;34.99;21.21
44441;BME280;30146;52.268;20.944;2023-04-21T07:33:08;100737.65;;;35.14;21.36
44441;BME280;30146;52.268;20.944;2023-04-21T07:35:36;100737.34;;;35.24;21.17
44441;BME280;30146;52.268;20.944;2023-04-21T07:38:04;100740.86;;;35.17;21.10
44441;BME280;30146;52.268;20.944;2023-04-21T07:40:32;100738.98;;;34.95;21.06
44441;BME280;30146;52.268;20.944;2023-04-21T07:43:01;100736.79;;;34.55;21.00
44441;BME280;30146;52.268;20.944;2023-04-21T07:45:29;100734.83;;;34.09;21.32
44441;BME280;30146;52.268;20.944;2023-04-21T07:47:57;100732.39;;;33.61;21.29
44441;BME280;30146;52.268;20.944;2023-04-21T07:50:26;100729.96;;;33.03;21.27
44441;BME280;30146;52.268;20.944;2023-04-21T07:52:54;100727.67;;;32.57;21.40
44441;BME280;30146;52.268;20.944;2023-04-21T07:55:22;100723.27;;;32.14;21.60
44441;BME280;30146;52.268;20.944;2023-04-21T07:57:50;100720.37;;;31.73;21.73
44441;BME280;30146;52.268;20.944;2023-04-21T08:00:19;100718.44;;;31.39;21.83
44441;BME280;30146;52.268;20.944;2023-04-21T08:02:47;100723.35;;;31.04;22.16
44441;BME280;30146;52.268;20.944;2023-04-21T08:05:16;100717.54;;;30.81;22.37
44441;BME280;30146;52.268;20.944;2023-04-21T08:07:47;100712.14;;;30.67;22.68
44441;BME280;30146;52.268;20.944;2023-04-21T08:10:15;100714.85;;;30.48;22.74
44441;BME280;30146;52.268;20.944;2023-04-21T08:12:43;100713.51;;;30.26;22.22
44441;BME280;30146;52.268;20.944;2023-04-21T08:15:12;100710.10;;;29.96;22.42
44441;BME280;30146;52.268;20.944;2023-04-21T08:17:40;100705.09;;;29.57;21.71
44441;BME280;30146;52.268;20.944;2023-04-21T08:20:11;100708.31;;;29.12;21.98
44441;BME280;30146;52.268;20.944;2023-04-21T08:22:39;100707.95;;;28.70;22.32
44441;BME280;30146;52.268;20.944;2023-04-21T08:25:08;100706.14;;;28.46;22.60
44441;BME280;30146;52.268;20.944;2023-04-21T08:27:37;100701.20;;;28.24;22.80
44441;BME280;30146;52.268;20.944;2023-04-21T08:30:14;100700.98;;;28.01;22.57
44441;BME280;30146;52.268;20.944;2023-04-21T08:32:43;100703.30;;;27.71;22.40
44441;BME280;30146;52.268;20.944;2023-04-21T08:35:11;100704.04;;;27.47;22.64
44441;BME280;30146;52.268;20.944;2023-04-21T08:37:39;100698.23;;;27.26;22.66
44441;BME280;30146;52.268;20.944;2023-04-21T08:40:09;100697.83;;;27.12;23.00
44441;BME280;30146;52.268;20.944;2023-04-21T08:42:38;100695.92;;;27.02;22.90
44441;BME280;30146;52.268;20.944;2023-04-21T08:45:09;100698.38;;;26.88;22.82
44441;BME280;30146;52.268;20.944;2023-04-21T08:47:39;100700.48;;;26.76;22.97
44441;BME280;30146;52.268;20.944;2023-04-21T08:50:12;100701.92;;;26.70;23.24
44441;BME280;30146;52.268;20.944;2023-04-21T08:52:40;100702.80;;;26.57;22.63
44441;BME280;30146;52.268;20.944;2023-04-21T08:55:11;100695.60;;;26.40;22.68
44441;BME280;30146;52.268;20.944;2023-04-21T08:57:39;100698.60;;;26.24;22.80
44441;BME280;30146;52.268;20.944;2023-04-21T09:00:10;100699.98;;;26.05;22.51
44441;BME280;30146;52.268;20.944;2023-04-21T09:02:53;100692.23;;;25.76;22.18
44441;BME280;30146;52.268;20.944;2023-04-21T09:05:29;100689.59;;;25.40;22.16
44441;BME280;30146;52.268;20.944;2023-04-21T09:08:08;100687.77;;;25.16;22.63
44441;BME280;30146;52.268;20.944;2023-04-21T09:10:43;100688.99;;;24.92;22.87
44441;BME280;30146;52.268;20.944;2023-04-21T09:13:11;100690.23;;;24.84;23.10
44441;BME280;30146;52.268;20.944;2023-04-21T09:15:40;100684.64;;;24.69;22.78
44441;BME280;30146;52.268;20.944;2023-04-21T09:18:13;100689.40;;;24.46;22.58
44441;BME280;30146;52.268;20.944;2023-04-21T09:20:41;100686.23;;;24.15;22.26
44441;BME280;30146;52.268;20.944;2023-04-21T09:23:10;100682.19;;;23.90;22.32
44441;BME280;30146;52.268;20.944;2023-04-21T09:25:39;100673.64;;;23.74;22.88
44441;BME280;30146;52.268;20.944;2023-04-21T09:28:08;100674.45;;;23.75;23.42
44441;BME280;30146;52.268;20.944;2023-04-21T09:30:37;100673.05;;;23.75;23.02
44441;BME280;30146;52.268;20.944;2023-04-21T09:33:06;100666.27;;;23.69;23.24
44441;BME280;30146;52.268;20.944;2023-04-21T09:35:52;100667.77;;;23.70;23.45
44441;BME280;30146;52.268;20.944;2023-04-21T09:38:21;100671.78;;;23.79;23.64
44441;BME280;30146;52.268;20.944;2023-04-21T09:40:57;100671.83;;;23.85;23.57
44441;BME280;30146;52.268;20.944;2023-04-21T09:43:25;100668.14;;;23.91;23.51
44441;BME280;30146;52.268;20.944;2023-04-21T09:45:55;100665.38;;;24.02;23.69
44441;BME280;30146;52.268;20.944;2023-04-21T09:48:28;100664.02;;;24.16;23.60
44441;BME280;30146;52.268;20.944;2023-04-21T09:50:58;100662.18;;;24.23;23.66
44441;BME280;30146;52.268;20.944;2023-04-21T09:53:33;100664.27;;;24.29;23.69
44441;BME280;30146;52.268;20.944;2023-04-21T09:56:18;100653.98;;;24.31;23.54
44441;BME280;30146;52.268;20.944;2023-04-21T10:01:59;100653.91;;;24.21;23.40
44441;BME280;30146;52.268;20.944;2023-04-21T10:04:33;100650.76;;;24.13;22.91
44441;BME280;30146;52.268;20.944;2023-04-21T10:07:21;100647.73;;;23.88;22.72
44441;BME280;30146;52.268;20.944;2023-04-21T10:10:46;100636.10;;;23.75;23.21
44441;BME280;30146;52.268;20.944;2023-04-21T10:13:47;100632.21;;;23.79;23.59
44441;BME280;30146;52.268;20.944;2023-04-21T10:16:25;100630.21;;;23.83;23.18
44441;BME280;30146;52.268;20.944;2023-04-21T10:34:27;100620.35;;;23.58;21.86
44441;BME280;30146;52.268;20.944;2023-04-21T10:37:18;100618.27;;;23.21;22.26
44441;BME280;30146;52.268;20.944;2023-04-21T10:47:42;100607.77;;;22.69;23.12
44441;BME280;30146;52.268;20.944;2023-04-21T10:50:17;100604.01;;;22.65;23.03
44441;BME280;30146;52.268;20.944;2023-04-21T10:52:54;100598.14;;;22.58;22.96
44441;BME280;30146;52.268;20.944;2023-04-21T10:55:30;100593.65;;;22.54;23.32
44441;BME280;30146;52.268;20.944;2023-04-21T10:58:03;100593.59;;;22.52;23.72
44441;BME280;30146;52.268;20.944;2023-04-21T11:00:36;100592.86;;;22.53;23.47
44441;BME280;30146;52.268;20.944;2023-04-21T11:06:31;100585.61;;;22.45;22.95
44441;BME280;30146;52.268;20.944;2023-04-21T11:09:01;100584.13;;;22.34;22.73
44441;BME280;30146;52.268;20.944;2023-04-21T11:11:35;100581.21;;;22.26;22.90
44441;BME280;30146;52.268;20.944;2023-04-21T11:14:17;100580.48;;;22.17;22.61
44441;BME280;30146;52.268;20.944;2023-04-21T11:20:08;100569.91;;;21.90;22.90
44441;BME280;30146;52.268;20.944;2023-04-21T11:22:41;100562.97;;;21.86;22.96
44441;BME280;30146;52.268;20.944;2023-04-21T11:25:18;100557.26;;;21.83;22.97
44441;BME280;30146;52.268;20.944;2023-04-21T11:27:55;100557.83;;;21.78;22.94
44441;BME280;30146;52.268;20.944;2023-04-21T11:30:34;100556.18;;;21.70;22.87
44441;BME280;30146;52.268;20.944;2023-04-21T11:33:07;100561.93;;;21.60;22.91
44441;BME280;30146;52.268;20.944;2023-04-21T11:35:41;100557.92;;;21.50;22.76
44441;BME280;30146;52.268;20.944;2023-04-21T11:38:12;100552.84;;;21.40;22.87
44441;BME280;30146;52.268;20.944;2023-04-21T11:44:31;100546.31;;;21.31;23.10
44441;BME280;30146;52.268;20.944;2023-04-21T11:47:12;100551.33;;;21.28;23.00
44441;BME280;30146;52.268;20.944;2023-04-21T11:49:47;100549.75;;;21.22;22.68
44441;BME280;30146;52.268;20.944;2023-04-21T11:52:23;100538.61;;;21.15;22.66
44441;BME280;30146;52.268;20.944;2023-04-21T11:54:59;100543.92;;;21.09;22.66
44441;BME280;30146;52.268;20.944;2023-04-21T11:57:33;100540.70;;;21.01;22.79
44441;BME280;30146;52.268;20.944;2023-04-21T12:00:07;100536.92;;;21.00;23.23
44441;BME280;30146;52.268;20.944;2023-04-21T12:02:41;100537.88;;;21.02;23.29
44441;BME280;30146;52.268;20.944;2023-04-21T12:05:13;100533.40;;;21.05;23.38
44441;BME280;30146;52.268;20.944;2023-04-21T12:08:13;100531.96;;;21.09;23.28
44441;BME280;30146;52.268;20.944;2023-04-21T12:10:49;100529.36;;;21.09;23.12
44441;BME280;30146;52.268;20.944;2023-04-21T12:13:23;100523.87;;;21.04;22.88
44441;BME280;30146;52.268;20.944;2023-04-21T12:15:54;100515.96;;;20.99;23.04
44441;BME280;30146;52.268;20.944;2023-04-21T12:18:28;100516.45;;;20.96;23.20
44441;BME280;30146;52.268;20.944;2023-04-21T12:21:02;100515.88;;;20.93;23.17
44441;BME280;30146;52.268;20.944;2023-04-21T12:23:33;100516.73;;;20.90;23.12
44441;BME280;30146;52.268;20.944;2023-04-21T12:26:04;100512.71;;;20.87;23.02
44441;BME280;30146;52.268;20.944;2023-04-21T12:28:35;100511.23;;;20.86;23.03
44441;BME280;30146;52.268;20.944;2023-04-21T12:31:16;100503.91;;;20.79;22.91
44441;BME280;30146;52.268;20.944;2023-04-21T12:34:16;100498.66;;;20.69;23.03
44441;BME280;30146;52.268;20.944;2023-04-21T12:36:58;100495.29;;;20.60;23.09
44441;BME280;30146;52.268;20.944;2023-04-21T12:43:15;100494.39;;;20.46;23.18
44441;BME280;30146;52.268;20.944;2023-04-21T12:51:06;100486.24;;;20.34;23.75
44441;BME280;30146;52.268;20.944;2023-04-21T12:53:53;100485.46;;;20.36;24.15
44441;BME280;30146;52.268;20.944;2023-04-21T12:56:24;100486.13;;;20.36;24.02
44441;BME280;30146;52.268;20.944;2023-04-21T12:59:07;100484.33;;;20.38;24.00
44441;BME280;30146;52.268;20.944;2023-04-21T13:01:47;100484.76;;;20.36;23.72
44441;BME280;30146;52.268;20.944;2023-04-21T13:05:42;100478.14;;;20.22;23.46
44441;BME280;30146;52.268;20.944;2023-04-21T13:08:23;100475.75;;;20.14;23.80
44441;BME280;30146;52.268;20.944;2023-04-21T13:15:10;100469.89;;;20.13;24.70
44441;BME280;30146;52.268;20.944;2023-04-21T13:17:49;100466.14;;;20.15;24.45
44441;BME280;30146;52.268;20.944;2023-04-21T13:29:07;100449.80;;;20.27;24.46
44441;BME280;30146;52.268;20.944;2023-04-21T13:32:09;100445.23;;;20.21;24.22
44441;BME280;30146;52.268;20.944;2023-04-21T13:39:52;100433.90;;;20.18;24.99
44441;BME280;30146;52.268;20.944;2023-04-21T13:53:32;100422.95;;;20.62;24.57
44441;BME280;30146;52.268;20.944;2023-04-21T13:56:17;100420.02;;;20.68;24.51
44441;BME280;30146;52.268;20.944;2023-04-21T13:58:59;100422.67;;;20.64;24.24
44441;BME280;30146;52.268;20.944;2023-04-21T14:01:41;100406.87;;;20.46;24.08
44441;BME280;30146;52.268;20.944;2023-04-21T14:08:50;100409.86;;;20.27;24.54
44441;BME280;30146;52.268;20.944;2023-04-21T14:12:30;100405.79;;;20.22;24.72
44441;BME280;30146;52.268;20.944;2023-04-21T14:15:48;100401.27;;;20.18;24.79
44441;BME280;30146;52.268;20.944;2023-04-21T14:27:14;100393.14;;;20.00;24.86
44441;BME280;30146;52.268;20.944;2023-04-21T14:41:03;100377.39;;;20.48;24.87
44441;BME280;30146;52.268;20.944;2023-04-21T14:48:02;100373.10;;;20.51;25.20
44441;BME280;30146;52.268;20.944;2023-04-21T14:51:03;100368.66;;;20.49;25.19
44441;BME280;30146;52.268;20.944;2023-04-21T14:53:57;100371.01;;;20.48;25.25